sensor_id;sensor_type;location;lat;lon;timestamp;P1;durP1;ratioP1;P2;durP2;ratioP2
78430;SDS011;67727;50.236;22.452;2023-08-01T00:00:26;13.60;;;8.90;;
78430;SDS011;67727;50.236;22.452;2023-08-01T00:03:13;13.60;;;9.50;;
78430;SDS011;67727;50.236;22.452;2023-08-01T00:05:40;13.70;;;8.50;;
78430;SDS011;67727;50.236;22.452;2023-08-01T00:08:11;13.00;;;7.90;;
78430;SDS011;67727;50.236;22.452;2023-08-01T00:10:39;16.00;;;8.00;;
78430;SDS011;67727;50.236;22.452;2023-08-01T00:13:06;12.10;;;7.90;;
78430;SDS011;67727;50.236;22.452;2023-08-01T00:15:34;14.60;;;8.20;;
78430;SDS011;67727;50.236;22.452;2023-08-01T00:18:01;15.50;;;9.70;;
78430;SDS011;67727;50.236;22.452;2023-08-01T00:20:28;14.70;;;9.80;;
78430;SDS011;67727;50.236;22.452;2023-08-01T00:22:55;14.00;;;9.00;;
78430;SDS011;67727;50.236;22.452;2023-08-01T00:25:21;14.80;;;8.80;;
78430;SDS011;67727;50.236;22.452;2023-08-01T00:27:48;11.20;;;7.50;;
78430;SDS011;67727;50.236;22.452;2023-08-01T00:30:15;13.70;;;8.80;;
78430;SDS011;67727;50.236;22.452;2023-08-01T00:32:42;16.20;;;7.80;;
78430;SDS011;67727;50.236;22.452;2023-08-01T00:35:09;12.50;;;8.50;;
78430;SDS011;67727;50.236;22.452;2023-08-01T00:37:37;13.50;;;8.50;;
78430;SDS011;67727;50.236;22.452;2023-08-01T00:40:04;17.00;;;9.70;;
78430;SDS011;67727;50.236;22.452;2023-08-01T00:42:31;12.30;;;8.30;;
78430;SDS011;67727;50.236;22.452;2023-08-01T00:44:58;12.00;;;8.80;;
78430;SDS011;67727;50.236;22.452;2023-08-01T00:47:26;12.50;;;8.10;;
78430;SDS011;67727;50.236;22.452;2023-08-01T00:49:53;12.50;;;8.20;;
78430;SDS011;67727;50.236;22.452;2023-08-01T00:52:20;14.00;;;8.00;;
78430;SDS011;67727;50.236;22.452;2023-08-01T00:54:48;13.60;;;9.40;;
78430;SDS011;67727;50.236;22.452;2023-08-01T00:57:15;16.40;;;9.10;;
78430;SDS011;67727;50.236;22.452;2023-08-01T00:59:42;14.60;;;9.90;;
78430;SDS011;67727;50.236;22.452;2023-08-01T01:02:09;16.10;;;10.50;;
78430;SDS011;67727;50.236;22.452;2023-08-01T01:04:36;11.00;;;8.10;;
78430;SDS011;67727;50.236;22.452;2023-08-01T01:07:05;14.30;;;8.30;;
78430;SDS011;67727;50.236;22.452;2023-08-01T01:09:33;13.80;;;8.80;;
78430;SDS011;67727;50.236;22.452;2023-08-01T01:11:59;13.70;;;8.70;;
78430;SDS011;67727;50.236;22.452;2023-08-01T01:14:27;14.10;;;8.10;;
78430;SDS011;67727;50.236;22.452;2023-08-01T01:16:55;14.60;;;9.10;;
78430;SDS011;67727;50.236;22.452;2023-08-01T01:19:22;14.40;;;9.10;;
78430;SDS011;67727;50.236;22.452;2023-08-01T01:21:49;13.70;;;9.20;;
78430;SDS011;67727;50.236;22.452;2023-08-01T01:24:16;12.90;;;8.80;;
78430;SDS011;67727;50.236;22.452;2023-08-01T01:26:46;13.20;;;8.70;;
78430;SDS011;67727;50.236;22.452;2023-08-01T01:29:14;14.00;;;7.50;;
78430;SDS011;67727;50.236;22.452;2023-08-01T01:31:42;14.50;;;8.60;;
78430;SDS011;67727;50.236;22.452;2023-08-01T01:34:09;16.10;;;8.30;;
78430;SDS011;67727;50.236;22.452;2023-08-01T01:36:36;10.80;;;8.20;;
78430;SDS011;67727;50.236;22.452;2023-08-01T01:39:03;12.50;;;8.80;;
78430;SDS011;67727;50.236;22.452;2023-08-01T01:41:30;15.10;;;8.90;;
78430;SDS011;67727;50.236;22.452;2023-08-01T01:43:56;15.70;;;9.00;;
78430;SDS011;67727;50.236;22.452;2023-08-01T01:46:23;13.90;;;7.90;;
78430;SDS011;67727;50.236;22.452;2023-08-01T01:48:50;14.30;;;8.60;;
78430;SDS011;67727;50.236;22.452;2023-08-01T01:51:17;13.40;;;8.20;;
78430;SDS011;67727;50.236;22.452;2023-08-01T01:53:44;13.20;;;7.90;;
78430;SDS011;67727;50.236;22.452;2023-08-01T01:56:11;13.70;;;8.40;;
78430;SDS011;67727;50.236;22.452;2023-08-01T01:58:37;13.90;;;8.10;;
78430;SDS011;67727;50.236;22.452;2023-08-01T02:01:04;16.30;;;8.90;;
78430;SDS011;67727;50.236;22.452;2023-08-01T02:03:31;10.90;;;7.90;;
78430;SDS011;67727;50.236;22.452;2023-08-01T02:05:58;13.80;;;9.20;;
78430;SDS011;67727;50.236;22.452;2023-08-01T02:08:24;13.90;;;7.40;;
78430;SDS011;67727;50.236;22.452;2023-08-01T02:10:51;11.80;;;7.80;;
78430;SDS011;67727;50.236;22.452;2023-08-01T02:13:18;10.20;;;7.30;;
78430;SDS011;67727;50.236;22.452;2023-08-01T02:15:45;10.60;;;7.80;;
78430;SDS011;67727;50.236;22.452;2023-08-01T02:18:12;13.80;;;8.60;;
78430;SDS011;67727;50.236;22.452;2023-08-01T02:20:39;11.70;;;7.50;;
78430;SDS011;67727;50.236;22.452;2023-08-01T02:23:06;13.50;;;8.30;;
78430;SDS011;67727;50.236;22.452;2023-08-01T02:25:32;10.50;;;7.50;;
78430;SDS011;67727;50.236;22.452;2023-08-01T02:28:04;13.40;;;7.30;;
78430;SDS011;67727;50.236;22.452;2023-08-01T02:30:31;15.30;;;7.40;;
78430;SDS011;67727;50.236;22.452;2023-08-01T02:32:57;10.10;;;6.70;;
78430;SDS011;67727;50.236;22.452;2023-08-01T02:35:24;13.20;;;7.50;;
78430;SDS011;67727;50.236;22.452;2023-08-01T02:37:51;14.80;;;6.50;;
78430;SDS011;67727;50.236;22.452;2023-08-01T02:40:18;14.30;;;8.00;;
78430;SDS011;67727;50.236;22.452;2023-08-01T02:42:45;11.80;;;7.50;;
78430;SDS011;67727;50.236;22.452;2023-08-01T02:45:12;13.10;;;7.70;;
78430;SDS011;67727;50.236;22.452;2023-08-01T02:47:39;14.90;;;7.30;;
78430;SDS011;67727;50.236;22.452;2023-08-01T02:50:06;13.30;;;7.40;;
78430;SDS011;67727;50.236;22.452;2023-08-01T02:52:33;10.20;;;6.30;;
78430;SDS011;67727;50.236;22.452;2023-08-01T02:55:00;11.60;;;7.20;;
78430;SDS011;67727;50.236;22.452;2023-08-01T02:57:27;11.30;;;7.00;;
78430;SDS011;67727;50.236;22.452;2023-08-01T02:59:54;10.80;;;6.90;;
78430;SDS011;67727;50.236;22.452;2023-08-01T03:02:20;12.00;;;7.20;;
78430;SDS011;67727;50.236;22.452;2023-08-01T03:04:47;10.10;;;7.40;;
78430;SDS011;67727;50.236;22.452;2023-08-01T03:07:14;11.00;;;7.40;;
78430;SDS011;67727;50.236;22.452;2023-08-01T03:09:41;13.30;;;7.80;;
78430;SDS011;67727;50.236;22.452;2023-08-01T03:12:09;12.90;;;8.10;;
78430;SDS011;67727;50.236;22.452;2023-08-01T03:14:36;11.90;;;7.20;;
78430;SDS011;67727;50.236;22.452;2023-08-01T03:17:03;11.80;;;7.00;;
78430;SDS011;67727;50.236;22.452;2023-08-01T03:19:30;10.60;;;7.00;;
78430;SDS011;67727;50.236;22.452;2023-08-01T03:21:56;10.80;;;6.40;;
78430;SDS011;67727;50.236;22.452;2023-08-01T03:24:23;11.80;;;7.50;;
78430;SDS011;67727;50.236;22.452;2023-08-01T03:26:50;11.00;;;7.00;;
78430;SDS011;67727;50.236;22.452;2023-08-01T03:29:17;11.90;;;7.30;;
78430;SDS011;67727;50.236;22.452;2023-08-01T03:31:44;9.90;;;7.10;;
78430;SDS011;67727;50.236;22.452;2023-08-01T03:34:11;11.60;;;7.30;;
78430;SDS011;67727;50.236;22.452;2023-08-01T03:36:39;12.20;;;7.20;;
78430;SDS011;67727;50.236;22.452;2023-08-01T03:39:05;14.20;;;8.30;;
78430;SDS011;67727;50.236;22.452;2023-08-01T03:41:32;11.70;;;8.50;;
78430;SDS011;67727;50.236;22.452;2023-08-01T03:43:59;11.60;;;8.70;;
78430;SDS011;67727;50.236;22.452;2023-08-01T03:46:26;16.00;;;9.20;;
78430;SDS011;67727;50.236;22.452;2023-08-01T03:48:52;13.70;;;9.30;;
78430;SDS011;67727;50.236;22.452;2023-08-01T03:51:19;14.90;;;8.10;;
78430;SDS011;67727;50.236;22.452;2023-08-01T03:53:47;12.60;;;7.80;;
78430;SDS011;67727;50.236;22.452;2023-08-01T03:56:14;11.60;;;7.50;;
78430;SDS011;67727;50.236;22.452;2023-08-01T03:58:41;11.20;;;8.20;;
78430;SDS011;67727;50.236;22.452;2023-08-01T04:01:07;15.80;;;7.80;;
78430;SDS011;67727;50.236;22.452;2023-08-01T04:03:34;13.20;;;8.10;;
78430;SDS011;67727;50.236;22.452;2023-08-01T04:06:01;12.60;;;8.80;;
78430;SDS011;67727;50.236;22.452;2023-08-01T04:08:28;13.30;;;7.80;;
78430;SDS011;67727;50.236;22.452;2023-08-01T04:10:55;12.20;;;7.60;;
78430;SDS011;67727;50.236;22.452;2023-08-01T04:13:21;15.40;;;8.50;;
78430;SDS011;67727;50.236;22.452;2023-08-01T04:15:48;13.00;;;8.30;;
78430;SDS011;67727;50.236;22.452;2023-08-01T04:18:15;12.30;;;7.60;;
78430;SDS011;67727;50.236;22.452;2023-08-01T04:20:42;12.60;;;8.00;;
78430;SDS011;67727;50.236;22.452;2023-08-01T04:23:08;11.60;;;8.30;;
78430;SDS011;67727;50.236;22.452;2023-08-01T04:25:35;12.20;;;8.50;;
78430;SDS011;67727;50.236;22.452;2023-08-01T04:28:02;13.90;;;8.20;;
78430;SDS011;67727;50.236;22.452;2023-08-01T04:30:28;12.40;;;6.90;;
78430;SDS011;67727;50.236;22.452;2023-08-01T04:32:55;13.50;;;7.90;;
78430;SDS011;67727;50.236;22.452;2023-08-01T04:35:22;10.70;;;7.90;;
78430;SDS011;67727;50.236;22.452;2023-08-01T04:37:49;13.70;;;7.40;;
78430;SDS011;67727;50.236;22.452;2023-08-01T04:40:15;15.80;;;7.50;;
78430;SDS011;67727;50.236;22.452;2023-08-01T04:42:43;10.20;;;7.00;;
78430;SDS011;67727;50.236;22.452;2023-08-01T04:45:09;13.00;;;7.90;;
78430;SDS011;67727;50.236;22.452;2023-08-01T04:47:36;13.00;;;8.10;;
78430;SDS011;67727;50.236;22.452;2023-08-01T04:50:03;11.90;;;7.70;;
78430;SDS011;67727;50.236;22.452;2023-08-01T04:52:31;11.10;;;6.80;;
78430;SDS011;67727;50.236;22.452;2023-08-01T04:54:58;12.60;;;7.80;;
78430;SDS011;67727;50.236;22.452;2023-08-01T04:57:25;10.10;;;7.00;;
78430;SDS011;67727;50.236;22.452;2023-08-01T04:59:52;9.40;;;7.60;;
78430;SDS011;67727;50.236;22.452;2023-08-01T05:02:19;10.40;;;7.10;;
78430;SDS011;67727;50.236;22.452;2023-08-01T05:04:46;12.90;;;7.70;;
78430;SDS011;67727;50.236;22.452;2023-08-01T05:07:13;8.40;;;6.60;;
78430;SDS011;67727;50.236;22.452;2023-08-01T05:09:39;10.00;;;7.90;;
78430;SDS011;67727;50.236;22.452;2023-08-01T05:12:06;9.20;;;7.20;;
78430;SDS011;67727;50.236;22.452;2023-08-01T05:14:33;10.20;;;7.50;;
78430;SDS011;67727;50.236;22.452;2023-08-01T05:17:00;11.90;;;7.20;;
78430;SDS011;67727;50.236;22.452;2023-08-01T05:19:27;11.40;;;7.50;;
78430;SDS011;67727;50.236;22.452;2023-08-01T05:21:54;9.30;;;7.20;;
78430;SDS011;67727;50.236;22.452;2023-08-01T05:24:21;9.40;;;7.20;;
78430;SDS011;67727;50.236;22.452;2023-08-01T05:26:48;10.00;;;7.00;;
78430;SDS011;67727;50.236;22.452;2023-08-01T05:29:15;12.30;;;8.00;;
78430;SDS011;67727;50.236;22.452;2023-08-01T05:31:42;8.80;;;5.60;;
78430;SDS011;67727;50.236;22.452;2023-08-01T05:34:08;7.60;;;6.00;;
78430;SDS011;67727;50.236;22.452;2023-08-01T05:36:35;12.90;;;6.80;;
78430;SDS011;67727;50.236;22.452;2023-08-01T05:39:03;8.60;;;6.40;;
78430;SDS011;67727;50.236;22.452;2023-08-01T05:41:30;8.90;;;6.70;;
78430;SDS011;67727;50.236;22.452;2023-08-01T05:43:57;9.10;;;6.70;;
78430;SDS011;67727;50.236;22.452;2023-08-01T05:46:24;10.60;;;7.20;;
78430;SDS011;67727;50.236;22.452;2023-08-01T05:48:51;9.40;;;7.10;;
78430;SDS011;67727;50.236;22.452;2023-08-01T05:51:18;8.90;;;6.50;;
78430;SDS011;67727;50.236;22.452;2023-08-01T05:53:45;9.40;;;5.80;;
78430;SDS011;67727;50.236;22.452;2023-08-01T05:56:11;13.10;;;5.80;;
78430;SDS011;67727;50.236;22.452;2023-08-01T05:58:38;8.10;;;5.60;;
78430;SDS011;67727;50.236;22.452;2023-08-01T06:01:05;9.80;;;6.10;;
78430;SDS011;67727;50.236;22.452;2023-08-01T06:03:32;9.50;;;6.20;;
78430;SDS011;67727;50.236;22.452;2023-08-01T06:05:59;9.50;;;6.30;;
78430;SDS011;67727;50.236;22.452;2023-08-01T06:08:26;8.70;;;5.90;;
78430;SDS011;67727;50.236;22.452;2023-08-01T06:10:53;10.10;;;6.90;;
78430;SDS011;67727;50.236;22.452;2023-08-01T06:13:20;8.40;;;6.50;;
78430;SDS011;67727;50.236;22.452;2023-08-01T06:15:46;11.60;;;6.90;;
78430;SDS011;67727;50.236;22.452;2023-08-01T06:18:13;10.20;;;6.80;;
78430;SDS011;67727;50.236;22.452;2023-08-01T06:20:40;11.30;;;5.90;;
78430;SDS011;67727;50.236;22.452;2023-08-01T06:23:07;8.10;;;5.40;;
78430;SDS011;67727;50.236;22.452;2023-08-01T06:25:34;10.40;;;5.90;;
78430;SDS011;67727;50.236;22.452;2023-08-01T06:28:01;11.60;;;5.60;;
78430;SDS011;67727;50.236;22.452;2023-08-01T06:30:27;8.70;;;5.50;;
78430;SDS011;67727;50.236;22.452;2023-08-01T06:32:54;6.90;;;5.90;;
78430;SDS011;67727;50.236;22.452;2023-08-01T06:35:21;9.40;;;5.50;;
78430;SDS011;67727;50.236;22.452;2023-08-01T06:37:48;7.90;;;5.50;;
78430;SDS011;67727;50.236;22.452;2023-08-01T06:40:15;8.90;;;5.80;;
78430;SDS011;67727;50.236;22.452;2023-08-01T06:45:09;7.40;;;5.30;;
78430;SDS011;67727;50.236;22.452;2023-08-01T06:47:36;10.50;;;5.40;;
78430;SDS011;67727;50.236;22.452;2023-08-01T06:50:02;9.80;;;5.30;;
78430;SDS011;67727;50.236;22.452;2023-08-01T06:52:31;10.40;;;4.90;;
78430;SDS011;67727;50.236;22.452;2023-08-01T06:54:58;6.80;;;4.90;;
78430;SDS011;67727;50.236;22.452;2023-08-01T06:57:24;5.90;;;4.40;;
78430;SDS011;67727;50.236;22.452;2023-08-01T06:59:51;6.60;;;4.00;;
78430;SDS011;67727;50.236;22.452;2023-08-01T07:02:18;5.50;;;4.20;;
78430;SDS011;67727;50.236;22.452;2023-08-01T07:04:45;4.90;;;4.00;;
78430;SDS011;67727;50.236;22.452;2023-08-01T07:07:12;8.80;;;3.80;;
78430;SDS011;67727;50.236;22.452;2023-08-01T07:09:38;5.80;;;4.00;;
78430;SDS011;67727;50.236;22.452;2023-08-01T07:12:06;5.10;;;4.20;;
78430;SDS011;67727;50.236;22.452;2023-08-01T07:14:34;5.40;;;3.50;;
78430;SDS011;67727;50.236;22.452;2023-08-01T07:17:06;5.00;;;3.70;;
78430;SDS011;67727;50.236;22.452;2023-08-01T07:19:37;7.90;;;4.00;;
78430;SDS011;67727;50.236;22.452;2023-08-01T07:22:03;4.20;;;3.30;;
78430;SDS011;67727;50.236;22.452;2023-08-01T07:24:30;4.40;;;3.50;;
78430;SDS011;67727;50.236;22.452;2023-08-01T07:26:57;4.80;;;3.40;;
78430;SDS011;67727;50.236;22.452;2023-08-01T07:29:24;3.90;;;3.10;;
78430;SDS011;67727;50.236;22.452;2023-08-01T07:31:50;5.60;;;3.20;;
78430;SDS011;67727;50.236;22.452;2023-08-01T07:36:45;6.20;;;3.30;;
78430;SDS011;67727;50.236;22.452;2023-08-01T07:39:15;4.80;;;3.30;;
78430;SDS011;67727;50.236;22.452;2023-08-01T07:41:42;6.70;;;3.50;;
78430;SDS011;67727;50.236;22.452;2023-08-01T07:44:10;4.90;;;3.30;;
78430;SDS011;67727;50.236;22.452;2023-08-01T07:46:37;6.40;;;3.50;;
78430;SDS011;67727;50.236;22.452;2023-08-01T07:49:04;4.50;;;3.30;;
78430;SDS011;67727;50.236;22.452;2023-08-01T07:53:57;3.40;;;2.80;;
78430;SDS011;67727;50.236;22.452;2023-08-01T07:58:52;43.90;;;18.90;;
78430;SDS011;67727;50.236;22.452;2023-08-01T08:01:19;61.00;;;27.40;;
78430;SDS011;67727;50.236;22.452;2023-08-01T08:03:46;12.70;;;5.50;;
78430;SDS011;67727;50.236;22.452;2023-08-01T08:06:13;7.20;;;3.60;;
78430;SDS011;67727;50.236;22.452;2023-08-01T08:08:40;7.60;;;5.10;;
78430;SDS011;67727;50.236;22.452;2023-08-01T08:11:08;6.00;;;2.60;;
78430;SDS011;67727;50.236;22.452;2023-08-01T08:13:38;3.80;;;2.90;;
78430;SDS011;67727;50.236;22.452;2023-08-01T08:16:05;3.80;;;2.90;;
78430;SDS011;67727;50.236;22.452;2023-08-01T08:18:37;6.40;;;3.20;;
78430;SDS011;67727;50.236;22.452;2023-08-01T08:21:04;3.50;;;2.50;;
78430;SDS011;67727;50.236;22.452;2023-08-01T08:23:33;3.10;;;2.50;;
78430;SDS011;67727;50.236;22.452;2023-08-01T08:26:02;5.40;;;2.60;;
78430;SDS011;67727;50.236;22.452;2023-08-01T08:28:33;4.40;;;2.90;;
78430;SDS011;67727;50.236;22.452;2023-08-01T08:31:03;6.40;;;3.20;;
78430;SDS011;67727;50.236;22.452;2023-08-01T08:33:31;5.00;;;3.80;;
78430;SDS011;67727;50.236;22.452;2023-08-01T08:36:01;4.50;;;2.70;;
78430;SDS011;67727;50.236;22.452;2023-08-01T08:38:28;4.10;;;2.70;;
78430;SDS011;67727;50.236;22.452;2023-08-01T08:43:39;3.30;;;2.70;;
78430;SDS011;67727;50.236;22.452;2023-08-01T08:46:08;10.00;;;3.20;;
78430;SDS011;67727;50.236;22.452;2023-08-01T08:48:36;4.40;;;3.00;;
78430;SDS011;67727;50.236;22.452;2023-08-01T08:51:04;5.00;;;3.10;;
78430;SDS011;67727;50.236;22.452;2023-08-01T08:53:33;6.30;;;3.10;;
78430;SDS011;67727;50.236;22.452;2023-08-01T08:56:02;4.60;;;2.70;;
78430;SDS011;67727;50.236;22.452;2023-08-01T08:58:29;8.30;;;2.60;;
78430;SDS011;67727;50.236;22.452;2023-08-01T09:01:02;4.30;;;2.80;;
78430;SDS011;67727;50.236;22.452;2023-08-01T09:03:30;5.00;;;2.80;;
78430;SDS011;67727;50.236;22.452;2023-08-01T09:08:31;4.90;;;2.90;;
78430;SDS011;67727;50.236;22.452;2023-08-01T09:11:01;3.70;;;2.60;;
78430;SDS011;67727;50.236;22.452;2023-08-01T09:13:29;5.20;;;2.70;;
78430;SDS011;67727;50.236;22.452;2023-08-01T09:15:56;3.40;;;2.60;;
78430;SDS011;67727;50.236;22.452;2023-08-01T09:18:24;6.90;;;2.60;;
78430;SDS011;67727;50.236;22.452;2023-08-01T09:23:17;7.90;;;2.80;;
78430;SDS011;67727;50.236;22.452;2023-08-01T09:25:44;4.00;;;2.60;;
78430;SDS011;67727;50.236;22.452;2023-08-01T09:28:15;4.60;;;2.60;;
78430;SDS011;67727;50.236;22.452;2023-08-01T09:30:47;4.50;;;2.40;;
78430;SDS011;67727;50.236;22.452;2023-08-01T09:33:16;4.90;;;2.60;;
78430;SDS011;67727;50.236;22.452;2023-08-01T09:35:44;5.60;;;2.60;;
78430;SDS011;67727;50.236;22.452;2023-08-01T09:38:12;4.40;;;2.60;;
78430;SDS011;67727;50.236;22.452;2023-08-01T09:40:42;3.50;;;2.30;;
78430;SDS011;67727;50.236;22.452;2023-08-01T09:43:11;4.70;;;2.30;;
78430;SDS011;67727;50.236;22.452;2023-08-01T09:45:51;6.60;;;2.40;;
78430;SDS011;67727;50.236;22.452;2023-08-01T09:48:23;3.10;;;2.50;;
78430;SDS011;67727;50.236;22.452;2023-08-01T09:50:51;6.70;;;2.70;;
78430;SDS011;67727;50.236;22.452;2023-08-01T09:53:19;4.60;;;2.60;;
78430;SDS011;67727;50.236;22.452;2023-08-01T09:58:16;3.00;;;2.20;;
78430;SDS011;67727;50.236;22.452;2023-08-01T10:00:46;3.80;;;2.40;;
78430;SDS011;67727;50.236;22.452;2023-08-01T10:03:14;4.10;;;2.40;;
78430;SDS011;67727;50.236;22.452;2023-08-01T10:05:41;3.20;;;2.70;;
78430;SDS011;67727;50.236;22.452;2023-08-01T10:08:10;6.00;;;2.40;;
78430;SDS011;67727;50.236;22.452;2023-08-01T10:10:39;6.50;;;2.30;;
78430;SDS011;67727;50.236;22.452;2023-08-01T10:13:07;3.80;;;2.30;;
78430;SDS011;67727;50.236;22.452;2023-08-01T10:15:35;3.70;;;2.20;;
78430;SDS011;67727;50.236;22.452;2023-08-01T10:18:03;4.00;;;2.50;;
78430;SDS011;67727;50.236;22.452;2023-08-01T10:20:30;6.60;;;2.30;;
78430;SDS011;67727;50.236;22.452;2023-08-01T10:23:00;3.60;;;2.30;;
78430;SDS011;67727;50.236;22.452;2023-08-01T10:25:28;3.20;;;2.20;;
78430;SDS011;67727;50.236;22.452;2023-08-01T10:28:06;5.20;;;2.30;;
78430;SDS011;67727;50.236;22.452;2023-08-01T10:30:33;4.10;;;2.70;;
78430;SDS011;67727;50.236;22.452;2023-08-01T10:33:02;5.00;;;2.80;;
78430;SDS011;67727;50.236;22.452;2023-08-01T10:35:36;6.80;;;2.90;;
78430;SDS011;67727;50.236;22.452;2023-08-01T10:38:04;3.00;;;2.60;;
78430;SDS011;67727;50.236;22.452;2023-08-01T10:40:41;4.00;;;2.70;;
78430;SDS011;67727;50.236;22.452;2023-08-01T10:43:19;4.00;;;2.30;;
78430;SDS011;67727;50.236;22.452;2023-08-01T10:45:59;3.70;;;2.60;;
78430;SDS011;67727;50.236;22.452;2023-08-01T10:48:28;5.30;;;2.50;;
78430;SDS011;67727;50.236;22.452;2023-08-01T10:50:55;6.80;;;2.70;;
78430;SDS011;67727;50.236;22.452;2023-08-01T10:53:23;3.70;;;2.40;;
78430;SDS011;67727;50.236;22.452;2023-08-01T10:58:16;6.90;;;2.50;;
78430;SDS011;67727;50.236;22.452;2023-08-01T11:03:10;4.30;;;2.50;;
78430;SDS011;67727;50.236;22.452;2023-08-01T11:05:37;3.60;;;2.50;;
78430;SDS011;67727;50.236;22.452;2023-08-01T11:08:04;5.10;;;2.60;;
78430;SDS011;67727;50.236;22.452;2023-08-01T11:10:32;6.00;;;2.80;;
78430;SDS011;67727;50.236;22.452;2023-08-01T11:12:59;4.50;;;2.40;;
78430;SDS011;67727;50.236;22.452;2023-08-01T11:15:26;8.70;;;3.20;;
78430;SDS011;67727;50.236;22.452;2023-08-01T11:17:54;3.60;;;2.50;;
78430;SDS011;67727;50.236;22.452;2023-08-01T11:20:23;6.80;;;2.80;;
78430;SDS011;67727;50.236;22.452;2023-08-01T11:22:55;4.40;;;2.50;;
78430;SDS011;67727;50.236;22.452;2023-08-01T11:25:40;9.20;;;2.70;;
78430;SDS011;67727;50.236;22.452;2023-08-01T11:28:10;7.40;;;2.70;;
78430;SDS011;67727;50.236;22.452;2023-08-01T11:30:41;5.70;;;2.40;;
78430;SDS011;67727;50.236;22.452;2023-08-01T11:33:22;5.50;;;3.00;;
78430;SDS011;67727;50.236;22.452;2023-08-01T11:35:53;5.90;;;2.90;;
78430;SDS011;67727;50.236;22.452;2023-08-01T11:38:26;5.20;;;2.70;;
78430;SDS011;67727;50.236;22.452;2023-08-01T11:40:58;4.60;;;2.70;;
78430;SDS011;67727;50.236;22.452;2023-08-01T11:43:29;5.80;;;2.90;;
78430;SDS011;67727;50.236;22.452;2023-08-01T11:46:04;6.70;;;2.90;;
78430;SDS011;67727;50.236;22.452;2023-08-01T11:48:32;3.90;;;2.60;;
78430;SDS011;67727;50.236;22.452;2023-08-01T11:50:59;4.70;;;2.70;;
78430;SDS011;67727;50.236;22.452;2023-08-01T11:53:27;3.70;;;2.80;;
78430;SDS011;67727;50.236;22.452;2023-08-01T11:55:55;4.80;;;2.90;;
78430;SDS011;67727;50.236;22.452;2023-08-01T12:01:08;5.20;;;3.00;;
78430;SDS011;67727;50.236;22.452;2023-08-01T12:03:50;6.30;;;3.00;;
78430;SDS011;67727;50.236;22.452;2023-08-01T12:06:19;6.70;;;2.90;;
78430;SDS011;67727;50.236;22.452;2023-08-01T12:08:51;4.90;;;3.20;;
78430;SDS011;67727;50.236;22.452;2023-08-01T12:14:06;4.50;;;2.50;;
78430;SDS011;67727;50.236;22.452;2023-08-01T12:16:36;5.70;;;3.10;;
78430;SDS011;67727;50.236;22.452;2023-08-01T12:19:04;4.50;;;2.50;;
78430;SDS011;67727;50.236;22.452;2023-08-01T12:21:32;4.00;;;3.00;;
78430;SDS011;67727;50.236;22.452;2023-08-01T12:24:01;5.30;;;2.90;;
78430;SDS011;67727;50.236;22.452;2023-08-01T12:26:28;7.10;;;3.70;;
78430;SDS011;67727;50.236;22.452;2023-08-01T12:28:55;7.20;;;3.20;;
78430;SDS011;67727;50.236;22.452;2023-08-01T12:33:49;7.30;;;2.90;;
78430;SDS011;67727;50.236;22.452;2023-08-01T12:36:16;4.40;;;2.80;;
78430;SDS011;67727;50.236;22.452;2023-08-01T12:38:43;4.90;;;3.10;;
78430;SDS011;67727;50.236;22.452;2023-08-01T12:41:11;6.50;;;3.00;;
78430;SDS011;67727;50.236;22.452;2023-08-01T12:43:38;7.70;;;3.20;;
78430;SDS011;67727;50.236;22.452;2023-08-01T12:48:31;5.70;;;3.20;;
78430;SDS011;67727;50.236;22.452;2023-08-01T12:53:25;6.30;;;3.30;;
78430;SDS011;67727;50.236;22.452;2023-08-01T12:58:18;3.90;;;2.70;;
78430;SDS011;67727;50.236;22.452;2023-08-01T13:03:12;4.20;;;2.80;;
78430;SDS011;67727;50.236;22.452;2023-08-01T13:05:40;5.30;;;2.90;;
78430;SDS011;67727;50.236;22.452;2023-08-01T13:08:08;4.40;;;2.80;;
78430;SDS011;67727;50.236;22.452;2023-08-01T13:10:36;4.20;;;3.00;;
78430;SDS011;67727;50.236;22.452;2023-08-01T13:13:04;5.80;;;3.10;;
78430;SDS011;67727;50.236;22.452;2023-08-01T13:15:32;6.10;;;3.10;;
78430;SDS011;67727;50.236;22.452;2023-08-01T13:17:59;5.10;;;3.00;;
78430;SDS011;67727;50.236;22.452;2023-08-01T13:22:52;4.90;;;2.90;;
78430;SDS011;67727;50.236;22.452;2023-08-01T13:25:19;5.30;;;2.80;;
78430;SDS011;67727;50.236;22.452;2023-08-01T13:27:46;5.20;;;2.90;;
78430;SDS011;67727;50.236;22.452;2023-08-01T13:32:44;4.90;;;2.70;;
78430;SDS011;67727;50.236;22.452;2023-08-01T13:35:12;4.60;;;2.60;;
78430;SDS011;67727;50.236;22.452;2023-08-01T13:37:39;6.30;;;2.70;;
78430;SDS011;67727;50.236;22.452;2023-08-01T13:40:06;7.70;;;2.50;;
78430;SDS011;67727;50.236;22.452;2023-08-01T13:42:34;4.60;;;2.90;;
78430;SDS011;67727;50.236;22.452;2023-08-01T13:45:01;4.20;;;2.60;;
78430;SDS011;67727;50.236;22.452;2023-08-01T13:47:28;4.20;;;2.70;;
78430;SDS011;67727;50.236;22.452;2023-08-01T13:49:55;4.40;;;2.60;;
78430;SDS011;67727;50.236;22.452;2023-08-01T13:52:22;7.80;;;3.10;;
78430;SDS011;67727;50.236;22.452;2023-08-01T13:54:50;7.50;;;2.90;;
78430;SDS011;67727;50.236;22.452;2023-08-01T13:57:19;8.40;;;2.70;;
78430;SDS011;67727;50.236;22.452;2023-08-01T13:59:47;5.70;;;2.90;;
78430;SDS011;67727;50.236;22.452;2023-08-01T14:02:17;8.60;;;3.30;;
78430;SDS011;67727;50.236;22.452;2023-08-01T14:05:24;6.90;;;3.00;;
78430;SDS011;67727;50.236;22.452;2023-08-01T14:07:52;3.80;;;2.70;;
78430;SDS011;67727;50.236;22.452;2023-08-01T14:10:22;8.90;;;3.60;;
78430;SDS011;67727;50.236;22.452;2023-08-01T14:12:49;5.30;;;3.20;;
78430;SDS011;67727;50.236;22.452;2023-08-01T14:15:17;7.00;;;2.80;;
78430;SDS011;67727;50.236;22.452;2023-08-01T14:17:44;5.50;;;3.00;;
78430;SDS011;67727;50.236;22.452;2023-08-01T14:20:11;5.30;;;2.90;;
78430;SDS011;67727;50.236;22.452;2023-08-01T14:22:38;9.10;;;3.40;;
78430;SDS011;67727;50.236;22.452;2023-08-01T14:25:07;4.10;;;2.90;;
78430;SDS011;67727;50.236;22.452;2023-08-01T14:27:35;9.60;;;3.10;;
78430;SDS011;67727;50.236;22.452;2023-08-01T14:30:02;5.90;;;3.20;;
78430;SDS011;67727;50.236;22.452;2023-08-01T14:32:32;8.30;;;3.40;;
78430;SDS011;67727;50.236;22.452;2023-08-01T14:37:26;4.20;;;3.00;;
78430;SDS011;67727;50.236;22.452;2023-08-01T14:39:56;6.90;;;2.90;;
78430;SDS011;67727;50.236;22.452;2023-08-01T14:42:23;4.20;;;3.10;;
78430;SDS011;67727;50.236;22.452;2023-08-01T14:44:51;3.90;;;3.10;;
78430;SDS011;67727;50.236;22.452;2023-08-01T14:47:19;5.10;;;3.10;;
78430;SDS011;67727;50.236;22.452;2023-08-01T14:49:47;4.90;;;2.90;;
78430;SDS011;67727;50.236;22.452;2023-08-01T14:54:41;6.20;;;3.00;;
78430;SDS011;67727;50.236;22.452;2023-08-01T14:57:07;4.50;;;3.20;;
78430;SDS011;67727;50.236;22.452;2023-08-01T14:59:34;3.90;;;3.00;;
78430;SDS011;67727;50.236;22.452;2023-08-01T15:02:01;6.10;;;3.00;;
78430;SDS011;67727;50.236;22.452;2023-08-01T15:04:28;3.40;;;2.70;;
78430;SDS011;67727;50.236;22.452;2023-08-01T15:09:22;7.90;;;3.80;;
78430;SDS011;67727;50.236;22.452;2023-08-01T15:11:48;8.10;;;3.00;;
78430;SDS011;67727;50.236;22.452;2023-08-01T15:14:15;5.20;;;3.00;;
78430;SDS011;67727;50.236;22.452;2023-08-01T15:16:42;9.90;;;3.10;;
78430;SDS011;67727;50.236;22.452;2023-08-01T15:21:36;8.70;;;3.10;;
78430;SDS011;67727;50.236;22.452;2023-08-01T15:24:03;4.60;;;2.90;;
78430;SDS011;67727;50.236;22.452;2023-08-01T15:28:56;4.10;;;3.00;;
78430;SDS011;67727;50.236;22.452;2023-08-01T15:31:23;4.10;;;3.40;;